Crawford, Colorado
Current Conditions -  °F | °C
As of 1:53 AM on Wednesday 26 Nov 2014 (Local Time) from KMTJ Reporting Station
Overcast Overcast  
Wind Chill: 27°   Ceiling: 6000
Heat Index: 32°   Visibility: 9mi
Dew Point: 23°   Wind: 5mph
Humidity: 69%   Direction: 130°SE
Pressure: 30.33"   Gusts: NA
Location:  38.7°N, 107.61°W
Report Text: KMTJ 260853Z AUTO 13004KT 9SM OVC060 00/M05 A3033 RMK AO2 SLP275 T00001050 53001
Loading
Personal Weather Stations






























Interactive Weather Map New forecast layout! Learn more

10-Day Weather Forecast

Advertisements
Track Severe Weather on mobile